Time;durP1;ratioP1;P1;durP2;ratioP2;P2;SDS_P1;SDS_P2;PMS_P1;PMS_P2;Temp;Humidity;BMP_temperature;BMP_pressure;BME280_temperature;BME280_humidity;BME280_pressure;Samples;Min_cycle;Max_cycle;Signal;HPM_P1;HPM_P2
2022/04/15 00:02:02;;;;;;;12.60;7.70;;;11.70;67.60;;;;;;9181736;19;20482;-68
2022/04/15 00:08:28;;;;;;;21.38;7.95;;;11.60;67.80;;;;;;9177472;19;20019;-68
2022/04/15 00:11:33;;;;;;;13.68;7.78;;;11.50;67.70;;;;;;9187428;19;20475;-68
2022/04/15 00:14:38;;;;;;;19.15;7.63;;;11.50;67.80;;;;;;9188890;19;20018;-66
2022/04/15 00:17:44;;;;;;;11.05;7.93;;;11.50;67.90;;;;;;9190488;19;20006;-69
2022/04/15 00:20:51;;;;;;;15.15;7.30;;;11.40;67.90;;;;;;9191000;19;20387;-68
2022/04/15 00:23:57;;;;;;;16.48;7.35;;;11.40;68.00;;;;;;9189505;19;20017;-67
2022/04/15 00:27:02;;;;;;;13.57;6.53;;;11.30;68.00;;;;;;9190154;19;20479;-68
2022/04/15 00:30:09;;;;;;;17.13;6.70;;;11.30;68.00;;;;;;9184872;19;20486;-67
2022/04/15 00:33:14;;;;;;;14.48;6.38;;;11.30;68.20;;;;;;9187323;19;20025;-68
2022/04/15 00:36:21;;;;;;;12.75;6.47;;;11.20;68.10;;;;;;9185981;19;20021;-65
2022/04/15 00:39:26;;;;;;;14.50;7.15;;;11.20;68.20;;;;;;9187472;19;20038;-69
2022/04/15 00:42:32;;;;;;;17.25;6.85;;;11.10;68.30;;;;;;9185688;19;20011;-66
2022/04/15 00:45:37;;;;;;;15.38;6.53;;;11.10;68.30;;;;;;9186830;19;20746;-67
2022/04/15 00:48:42;;;;;;;15.02;6.93;;;11.00;68.30;;;;;;9187168;19;20047;-67
2022/04/15 00:51:51;;;;;;;13.63;7.07;;;11.00;68.50;;;;;;9189040;19;20479;-67
2022/04/15 00:54:58;;;;;;;16.92;7.55;;;11.00;68.60;;;;;;9186691;19;20861;-66
2022/04/15 00:58:04;;;;;;;15.05;7.38;;;11.00;68.60;;;;;;9186584;19;20015;-68
2022/04/15 01:01:10;;;;;;;14.88;6.88;;;10.90;68.60;;;;;;9186736;19;20344;-66
2022/04/15 01:04:16;;;;;;;15.32;7.25;;;10.90;68.70;;;;;;9187525;19;20029;-67
2022/04/15 01:07:27;;;;;;;16.25;7.60;;;10.90;68.70;;;;;;9188241;19;20094;-67
2022/04/15 01:10:36;;;;;;;14.02;7.22;;;10.90;68.80;;;;;;9187925;19;20451;-68
2022/04/15 01:13:41;;;;;;;16.90;7.00;;;10.90;68.70;;;;;;9186397;19;20018;-70
2022/04/15 01:16:46;;;;;;;17.08;5.90;;;10.80;68.70;;;;;;9187727;19;20018;-68
2022/04/15 01:19:51;;;;;;;12.88;6.25;;;10.80;68.70;;;;;;9187303;19;20011;-67
2022/04/15 01:23:05;;;;;;;14.48;6.78;;;10.80;68.80;;;;;;9184440;19;20010;-67
2022/04/15 01:26:10;;;;;;;15.93;6.45;;;10.70;68.80;;;;;;9186802;19;20030;-67
2022/04/15 01:29:15;;;;;;;13.45;6.30;;;10.70;68.80;;;;;;9186330;19;20015;-67
2022/04/15 01:32:21;;;;;;;12.73;6.18;;;10.70;68.80;;;;;;9181392;19;20034;-66
2022/04/15 01:35:26;;;;;;;13.05;6.25;;;10.70;68.90;;;;;;9183495;19;20006;-68
2022/04/15 01:38:34;;;;;;;12.40;6.30;;;10.70;68.90;;;;;;9186837;19;20022;-67
2022/04/15 01:41:41;;;;;;;17.45;5.88;;;10.60;68.90;;;;;;9185548;19;20010;-67
2022/04/15 01:44:46;;;;;;;12.95;6.38;;;10.60;68.90;;;;;;9186301;19;20007;-67
2022/04/15 01:47:52;;;;;;;17.60;6.65;;;10.60;68.90;;;;;;9187069;19;20002;-67
2022/04/15 01:50:57;;;;;;;12.52;6.80;;;10.60;69.00;;;;;;9185417;19;20503;-66
2022/04/15 01:54:05;;;;;;;16.80;6.55;;;10.50;69.00;;;;;;9184122;19;20010;-66
2022/04/15 01:57:11;;;;;;;13.63;6.30;;;10.50;69.10;;;;;;9184519;19;20022;-67
2022/04/15 02:00:17;;;;;;;17.92;7.20;;;10.50;69.00;;;;;;9186267;19;20038;-67
2022/04/15 02:03:22;;;;;;;20.02;8.40;;;10.40;69.00;;;;;;9183339;19;20019;-67
2022/04/15 02:06:27;;;;;;;16.55;7.88;;;10.40;69.20;;;;;;9185566;19;20007;-67
2022/04/15 02:09:34;;;;;;;19.20;7.38;;;10.40;69.20;;;;;;9181408;19;20369;-68
2022/04/15 02:12:39;;;;;;;14.10;7.38;;;10.30;69.20;;;;;;9185367;19;20006;-67
2022/04/15 02:15:45;;;;;;;13.55;8.18;;;10.30;69.20;;;;;;9182013;19;20018;-67
2022/04/15 02:18:49;;;;;;;15.00;7.55;;;10.20;69.20;;;;;;9183363;19;20014;-69
2022/04/15 02:21:54;;;;;;;22.77;7.70;;;10.20;69.30;;;;;;9184904;19;20120;-66
2022/04/15 02:25:02;;;;;;;19.00;8.23;;;10.20;69.30;;;;;;9183100;19;20021;-68
2022/04/15 02:28:07;;;;;;;18.98;7.93;;;10.10;69.40;;;;;;9185420;19;20022;-67
2022/04/15 02:31:12;;;;;;;12.10;6.65;;;10.10;69.40;;;;;;9180362;19;20018;-68
2022/04/15 02:34:17;;;;;;;15.10;7.28;;;10.10;69.40;;;;;;9184880;19;20007;-67
2022/04/15 02:37:22;;;;;;;20.10;7.95;;;10.00;69.40;;;;;;9182942;19;20021;-68
2022/04/15 02:40:30;;;;;;;12.80;7.07;;;10.00;69.50;;;;;;9185357;19;20033;-67
2022/04/15 02:43:36;;;;;;;14.77;7.13;;;10.00;69.60;;;;;;9185144;19;20014;-66
2022/04/15 02:46:41;;;;;;;10.90;6.88;;;9.90;69.50;;;;;;9182859;19;20021;-66
2022/04/15 02:49:46;;;;;;;14.43;7.43;;;9.90;69.60;;;;;;9182958;19;20025;-66
2022/04/15 02:52:51;;;;;;;11.32;7.13;;;9.90;69.60;;;;;;9184611;19;20124;-66
2022/04/15 02:55:59;;;;;;;13.80;7.13;;;9.80;69.60;;;;;;9180129;19;20019;-66
2022/04/15 02:59:04;;;;;;;15.52;7.28;;;9.80;69.70;;;;;;9184187;19;20324;-68
2022/04/15 03:02:09;;;;;;;17.00;6.53;;;9.80;69.70;;;;;;9180829;19;20021;-67
2022/04/15 03:05:14;;;;;;;11.13;6.53;;;9.70;69.70;;;;;;9181937;19;20014;-66
2022/04/15 03:08:19;;;;;;;12.18;7.28;;;9.70;69.80;;;;;;9182899;19;20034;-68
2022/04/15 03:11:27;;;;;;;12.20;6.82;;;9.70;69.90;;;;;;9182783;19;20025;-67
2022/04/15 03:14:32;;;;;;;11.30;7.22;;;9.60;69.90;;;;;;9181952;19;20018;-66
2022/04/15 03:17:37;;;;;;;14.65;7.22;;;9.60;69.90;;;;;;9183328;19;20030;-68
2022/04/15 03:20:43;;;;;;;14.90;7.70;;;9.60;69.90;;;;;;9181819;19;20010;-66
2022/04/15 03:23:48;;;;;;;17.95;7.43;;;9.60;69.90;;;;;;9181734;19;20014;-67
2022/04/15 03:26:55;;;;;;;11.25;6.85;;;9.50;70.10;;;;;;9183245;19;20018;-67
2022/04/15 03:30:00;;;;;;;14.13;7.93;;;9.50;70.10;;;;;;9176395;19;20017;-67
2022/04/15 03:33:06;;;;;;;16.85;8.98;;;9.50;70.20;;;;;;9181327;19;20015;-68
2022/04/15 03:36:11;;;;;;;12.77;7.63;;;9.50;70.20;;;;;;9178318;19;20394;-66
2022/04/15 03:39:16;;;;;;;16.98;8.02;;;9.50;70.30;;;;;;9182215;19;20013;-68
2022/04/15 03:42:24;;;;;;;15.98;7.97;;;9.50;70.30;;;;;;9181832;19;20010;-66
2022/04/15 03:45:29;;;;;;;19.63;9.23;;;9.50;70.50;;;;;;9186055;19;20006;-68
2022/04/15 03:48:33;;;;;;;20.45;9.27;;;9.40;70.40;;;;;;9191824;19;20014;-67
2022/04/15 03:51:38;;;;;;;20.45;9.38;;;9.50;70.50;;;;;;9190940;19;20014;-66
2022/04/15 03:54:43;;;;;;;20.30;8.90;;;9.50;70.60;;;;;;9187899;19;20086;-68
2022/04/15 03:57:51;;;;;;;20.25;8.45;;;9.40;71.20;;;;;;9188324;19;20656;-68
2022/04/15 04:00:57;;;;;;;18.55;7.95;;;9.40;70.70;;;;;;9189305;19;20045;-67
2022/04/15 04:04:02;;;;;;;18.00;8.20;;;9.50;70.70;;;;;;9189607;19;20472;-66
2022/04/15 04:07:10;;;;;;;17.27;7.57;;;9.40;70.60;;;;;;9188978;19;20014;-67
2022/04/15 04:10:17;;;;;;;14.93;8.55;;;9.50;70.70;;;;;;9191024;19;20007;-69
2022/04/15 04:13:24;;;;;;;23.08;7.95;;;9.50;70.80;;;;;;9188941;19;20010;-66
2022/04/15 04:16:30;;;;;;;23.75;9.18;;;9.40;70.80;;;;;;9185692;19;20030;-66
2022/04/15 04:19:35;;;;;;;20.23;7.93;;;9.40;70.80;;;;;;9190384;19;20021;-66
2022/04/15 04:22:41;;;;;;;17.40;7.90;;;9.50;70.90;;;;;;9188782;19;20483;-66
2022/04/15 04:25:46;;;;;;;26.30;8.00;;;9.40;70.80;;;;;;9189979;19;20014;-66
2022/04/15 04:28:53;;;;;;;16.95;7.72;;;9.40;70.90;;;;;;9190289;19;20026;-67
2022/04/15 04:31:58;;;;;;;14.63;7.07;;;9.40;71.00;;;;;;9180503;19;20648;-66
2022/04/15 04:35:03;;;;;;;15.88;8.02;;;9.40;70.90;;;;;;9187098;19;20015;-68
2022/04/15 04:38:09;;;;;;;16.73;7.80;;;9.40;71.00;;;;;;9187325;19;20384;-68
2022/04/15 04:41:14;;;;;;;16.42;6.70;;;9.40;71.00;;;;;;9186800;19;20015;-67
2022/04/15 04:44:22;;;;;;;18.23;7.78;;;9.40;71.00;;;;;;9189251;19;20018;-68
2022/04/15 04:47:27;;;;;;;22.58;7.65;;;9.40;71.10;;;;;;9185808;19;20022;-67
2022/04/15 04:50:33;;;;;;;16.70;7.38;;;9.40;71.10;;;;;;9186662;19;20483;-67
2022/04/15 04:53:38;;;;;;;14.38;7.32;;;9.50;71.20;;;;;;9185755;19;20045;-68
2022/04/15 04:56:44;;;;;;;12.02;7.60;;;9.40;71.10;;;;;;9182958;19;20085;-66
2022/04/15 04:59:51;;;;;;;10.90;7.70;;;9.50;71.20;;;;;;9187143;19;20023;-67
2022/04/15 05:02:56;;;;;;;21.13;7.90;;;9.50;71.30;;;;;;9189238;19;20355;-69
2022/04/15 05:06:02;;;;;;;14.85;7.70;;;9.50;71.30;;;;;;9187085;19;20033;-67
2022/04/15 05:09:07;;;;;;;12.05;6.75;;;9.50;71.30;;;;;;9185190;19;20014;-66
2022/04/15 05:12:12;;;;;;;21.40;8.15;;;9.40;71.30;;;;;;9187724;19;20057;-67
2022/04/15 05:15:20;;;;;;;15.18;6.53;;;9.50;71.40;;;;;;9185747;19;20019;-69
2022/04/15 05:18:25;;;;;;;13.23;7.07;;;9.50;71.50;;;;;;9186421;19;20015;-66
2022/04/15 05:21:30;;;;;;;13.63;7.03;;;9.50;71.50;;;;;;9186542;19;20472;-67
2022/04/15 05:24:35;;;;;;;19.13;7.80;;;9.50;71.50;;;;;;9186530;19;20026;-68
2022/04/15 05:27:40;;;;;;;13.27;7.25;;;9.50;71.60;;;;;;9183754;19;20086;-67
2022/04/15 05:30:48;;;;;;;12.05;7.05;;;9.50;71.60;;;;;;9181873;19;20022;-67
2022/04/15 05:33:53;;;;;;;12.32;6.55;;;9.50;71.60;;;;;;9185835;19;20015;-69
2022/04/15 05:36:58;;;;;;;13.32;7.38;;;9.50;71.60;;;;;;9180504;19;20035;-67
2022/04/15 05:40:03;;;;;;;11.07;6.35;;;9.50;71.60;;;;;;9184664;19;20014;-67
2022/04/15 05:43:07;;;;;;;14.45;7.60;;;9.50;71.70;;;;;;9182965;19;20014;-66
2022/04/15 05:46:16;;;;;;;15.63;7.18;;;9.50;71.70;;;;;;9182583;19;20015;-68
2022/04/15 05:49:20;;;;;;;13.55;7.18;;;9.60;71.80;;;;;;9185119;19;20021;-67
2022/04/15 05:52:25;;;;;;;15.80;7.22;;;9.60;71.80;;;;;;9184546;19;20028;-67
2022/04/15 05:55:30;;;;;;;13.68;7.18;;;9.60;71.80;;;;;;9181513;19;20027;-68
2022/04/15 05:58:35;;;;;;;13.70;6.60;;;9.60;71.90;;;;;;9182371;19;20057;-67
2022/04/15 06:01:43;;;;;;;11.43;6.72;;;9.60;72.00;;;;;;9180586;19;20019;-69
2022/04/15 06:04:48;;;;;;;17.88;7.03;;;9.60;72.00;;;;;;9179472;19;20018;-68
2022/04/15 06:07:53;;;;;;;12.80;7.05;;;9.60;71.90;;;;;;9178464;19;20014;-69
2022/04/15 06:10:59;;;;;;;11.63;7.07;;;9.70;72.00;;;;;;9177883;19;20026;-67
2022/04/15 06:14:06;;;;;;;19.58;6.82;;;9.60;71.90;;;;;;9180652;19;20014;-69
2022/04/15 06:17:15;;;;;;;14.60;8.10;;;9.70;72.00;;;;;;9177636;19;20033;-68
2022/04/15 06:20:20;;;;;;;14.98;7.03;;;9.70;72.20;;;;;;9176996;19;20021;-69
2022/04/15 06:23:25;;;;;;;13.80;7.07;;;9.70;72.10;;;;;;9178484;19;20463;-68
2022/04/15 06:26:30;;;;;;;10.80;6.50;;;9.70;72.10;;;;;;9175956;19;20487;-69
2022/04/15 06:29:35;;;;;;;10.45;6.50;;;9.70;72.20;;;;;;9173506;19;20025;-68
2022/04/15 06:32:43;;;;;;;11.55;7.30;;;9.70;72.20;;;;;;9180659;19;20014;-67
2022/04/15 06:35:48;;;;;;;16.70;6.90;;;9.80;72.40;;;;;;9177075;19;20017;-68
2022/04/15 06:38:53;;;;;;;13.65;6.65;;;9.80;72.30;;;;;;9176893;19;20014;-68
2022/04/15 06:41:58;;;;;;;12.73;6.05;;;9.80;72.30;;;;;;9183058;19;20006;-68
2022/04/15 06:45:04;;;;;;;14.35;6.47;;;9.80;72.30;;;;;;9183471;19;20009;-68
2022/04/15 06:48:12;;;;;;;16.58;7.18;;;9.80;72.40;;;;;;9184185;19;20011;-68
2022/04/15 06:51:17;;;;;;;13.48;6.32;;;9.90;72.50;;;;;;9183948;19;20011;-67
2022/04/15 06:54:22;;;;;;;13.48;7.18;;;9.90;72.40;;;;;;9177440;19;20474;-67
2022/04/15 06:57:27;;;;;;;14.82;7.05;;;9.90;72.40;;;;;;9175219;19;20487;-68
2022/04/15 07:00:32;;;;;;;14.82;6.78;;;9.90;72.50;;;;;;9178671;19;20086;-66
2022/04/15 07:03:40;;;;;;;14.25;6.60;;;9.90;72.50;;;;;;9179533;19;20082;-69
2022/04/15 07:06:45;;;;;;;17.65;8.38;;;10.00;72.60;;;;;;9177035;19;20014;-68
2022/04/15 07:09:52;;;;;;;18.48;6.75;;;10.00;72.50;;;;;;9174768;19;20487;-69
2022/04/15 07:12:57;;;;;;;9.55;6.55;;;10.00;72.50;;;;;;9173364;19;20029;-67
2022/04/15 07:16:03;;;;;;;12.90;6.35;;;10.00;72.50;;;;;;9175852;19;20018;-67
2022/04/15 07:19:10;;;;;;;13.43;6.43;;;10.00;72.50;;;;;;9172726;19;20511;-67
2022/04/15 07:22:18;;;;;;;14.77;7.95;;;10.10;72.70;;;;;;9177407;19;20486;-66
2022/04/15 07:25:23;;;;;;;12.10;6.45;;;10.10;72.70;;;;;;9176629;19;20348;-67
2022/04/15 07:28:28;;;;;;;10.88;6.75;;;10.10;72.70;;;;;;9174393;19;20006;-66
2022/04/15 07:31:34;;;;;;;13.57;6.90;;;10.10;72.70;;;;;;9173405;19;20017;-68
2022/04/15 07:34:41;;;;;;;14.63;6.68;;;10.10;72.80;;;;;;9176172;19;20018;-67
2022/04/15 07:37:46;;;;;;;11.18;7.15;;;10.10;72.80;;;;;;9173792;19;20483;-66
2022/04/15 07:40:51;;;;;;;12.27;6.65;;;10.10;72.80;;;;;;9178501;19;20036;-70
2022/04/15 07:43:56;;;;;;;12.00;6.38;;;10.10;72.80;;;;;;9176241;19;20022;-69
2022/04/15 07:47:01;;;;;;;12.25;6.22;;;10.20;72.90;;;;;;9177720;19;20026;-70
2022/04/15 07:50:10;;;;;;;8.63;6.10;;;10.20;72.90;;;;;;9175410;19;20533;-67
2022/04/15 07:53:15;;;;;;;8.65;5.15;;;10.20;72.90;;;;;;9176300;19;20018;-67
2022/04/15 07:56:20;;;;;;;9.98;5.32;;;10.20;72.90;;;;;;9177831;19;20030;-68
2022/04/15 07:59:25;;;;;;;12.65;5.53;;;10.20;72.90;;;;;;9174563;19;20106;-68
2022/04/15 08:02:30;;;;;;;13.35;5.55;;;10.20;72.90;;;;;;9174239;19;20007;-67
2022/04/15 08:05:38;;;;;;;9.13;4.80;;;10.30;72.90;;;;;;9168330;19;20022;-68
2022/04/15 08:08:44;;;;;;;7.88;4.75;;;10.30;72.90;;;;;;9166068;19;20098;-67
2022/04/15 08:11:49;;;;;;;9.10;5.30;;;10.30;72.80;;;;;;9167355;19;20018;-69
2022/04/15 08:14:54;;;;;;;8.45;5.15;;;10.30;72.80;;;;;;9169518;19;20018;-68
2022/04/15 08:17:59;;;;;;;7.93;4.65;;;10.30;72.80;;;;;;9166824;19;20014;-66
2022/04/15 08:21:10;;;;;;;8.93;5.15;;;10.40;72.80;;;;;;9163715;19;20018;-68
2022/04/15 08:24:15;;;;;;;7.75;5.57;;;10.40;72.80;;;;;;9168948;19;20037;-67
2022/04/15 08:27:20;;;;;;;11.00;4.90;;;10.40;72.70;;;;;;9167148;19;20014;-68
2022/04/15 08:30:26;;;;;;;7.18;4.28;;;10.40;72.70;;;;;;9168778;19;20022;-68
2022/04/15 08:33:31;;;;;;;10.52;4.45;;;10.50;72.80;;;;;;9176974;19;20533;-68
2022/04/15 08:36:38;;;;;;;6.43;4.28;;;10.50;72.70;;;;;;9176215;19;20022;-67
2022/04/15 08:39:43;;;;;;;6.15;3.80;;;10.50;72.70;;;;;;9176088;19;20460;-67
2022/04/15 08:42:49;;;;;;;5.70;3.70;;;10.60;72.70;;;;;;9179392;19;20785;-68
2022/04/15 08:45:54;;;;;;;5.65;3.78;;;10.60;72.60;;;;;;9181521;19;20075;-67
2022/04/15 08:49:00;;;;;;;6.90;3.15;;;10.70;72.50;;;;;;9181561;19;20540;-68
2022/04/15 08:52:10;;;;;;;6.03;3.15;;;10.70;72.40;;;;;;9177369;19;20022;-68
2022/04/15 08:55:15;;;;;;;4.03;2.88;;;10.80;72.30;;;;;;9173792;19;20014;-68
2022/04/15 08:58:20;;;;;;;4.70;2.85;;;10.90;72.30;;;;;;9169939;19;20025;-68
2022/04/15 09:01:25;;;;;;;6.10;3.70;;;10.90;72.20;;;;;;9181013;19;20018;-68
2022/04/15 09:04:33;;;;;;;4.70;3.13;;;11.00;72.10;;;;;;9180160;19;20337;-68
2022/04/15 09:07:41;;;;;;;5.25;3.17;;;11.00;72.00;;;;;;9180999;19;20135;-67
2022/04/15 09:10:57;;;;;;;8.25;3.20;;;11.10;72.00;;;;;;9179352;19;20022;-68
2022/04/15 09:14:05;;;;;;;4.75;2.88;;;11.10;71.90;;;;;;9181726;19;20014;-68
2022/04/15 09:17:12;;;;;;;5.72;3.05;;;11.20;71.80;;;;;;9178332;19;20539;-67
2022/04/15 09:20:17;;;;;;;5.57;3.25;;;11.30;71.80;;;;;;9181956;19;20018;-70
2022/04/15 09:23:28;;;;;;;4.38;3.25;;;11.30;71.80;;;;;;9181508;19;20038;-68
2022/04/15 09:26:33;;;;;;;6.90;2.95;;;11.40;71.70;;;;;;9181034;19;20014;-68
2022/04/15 09:29:40;;;;;;;4.50;3.38;;;11.40;71.60;;;;;;9176265;19;20014;-67
2022/04/15 09:32:45;;;;;;;4.45;2.80;;;11.40;71.50;;;;;;9179104;19;20018;-67
2022/04/15 09:35:57;;;;;;;4.13;3.42;;;11.50;71.50;;;;;;9180172;19;20086;-68
2022/04/15 09:39:10;;;;;;;9.18;3.75;;;11.50;71.40;;;;;;9177077;19;20026;-67
2022/04/15 09:42:16;;;;;;;8.35;4.38;;;11.50;71.30;;;;;;9177472;19;20047;-69
2022/04/15 09:45:23;;;;;;;5.13;4.13;;;11.60;71.30;;;;;;9179217;19;20940;-68
2022/04/15 09:48:28;;;;;;;7.85;4.15;;;11.60;71.30;;;;;;9182133;19;20043;-68
2022/04/15 09:51:36;;;;;;;5.57;4.55;;;11.60;71.20;;;;;;9186708;19;20074;-66
2022/04/15 09:54:48;;;;;;;11.60;5.47;;;11.60;71.30;;;;;;9186896;19;20097;-65
2022/04/15 09:57:54;;;;;;;11.10;5.45;;;11.60;71.40;;;;;;9184208;19;20014;-71
2022/04/15 10:01:06;;;;;;;8.82;5.18;;;11.50;71.40;;;;;;9186973;19;20341;-64
2022/04/15 10:04:12;;;;;;;12.20;5.30;;;11.50;71.50;;;;;;9184421;19;20031;-64
2022/04/15 10:07:18;;;;;;;8.60;4.63;;;11.50;71.50;;;;;;9182823;19;20018;-65
2022/04/15 10:10:27;;;;;;;11.65;4.75;;;11.50;71.50;;;;;;9184523;19;20425;-64
2022/04/15 10:13:32;;;;;;;8.73;4.88;;;11.50;71.50;;;;;;9177581;19;20018;-66
2022/04/15 10:16:43;;;;;;;10.35;5.32;;;11.40;71.50;;;;;;9176142;19;20486;-67
2022/04/15 10:19:49;;;;;;;9.38;5.70;;;11.40;71.50;;;;;;9170744;19;20475;-64
2022/04/15 10:22:55;;;;;;;13.15;6.22;;;11.50;71.60;;;;;;9176356;19;20021;-66
2022/04/15 10:26:03;;;;;;;8.40;6.38;;;11.40;71.60;;;;;;9181185;19;20026;-67
2022/04/15 10:29:09;;;;;;;11.35;6.53;;;11.40;71.70;;;;;;9179203;19;20030;-66
2022/04/15 10:32:16;;;;;;;9.93;6.25;;;11.40;71.60;;;;;;9172689;19;20015;-66
2022/04/15 10:35:26;;;;;;;11.90;7.05;;;11.40;71.70;;;;;;9172691;19;20014;-65
2022/04/15 10:38:31;;;;;;;11.23;6.60;;;11.30;71.70;;;;;;9172120;19;20022;-66
2022/04/15 10:41:57;;;;;;;11.20;6.47;;;11.30;71.70;;;;;;9173992;19;20018;-66
2022/04/15 10:45:02;;;;;;;12.35;6.72;;;11.30;71.90;;;;;;9173331;19;20471;-67
2022/04/15 10:48:08;;;;;;;12.55;7.13;;;11.30;71.90;;;;;;9173307;19;20022;-66
2022/04/15 10:51:25;;;;;;;13.35;6.90;;;11.30;72.50;;;;;;9170784;19;20017;-65
2022/04/15 10:54:35;;;;;;;11.57;7.05;;;11.30;71.90;;;;;;9173248;19;20470;-65
2022/04/15 10:57:46;;;;;;;10.57;7.53;;;11.30;71.90;;;;;;9182890;19;20371;-65
2022/04/15 11:01:18;;;;;;;13.77;7.45;;;11.40;71.90;;;;;;9183487;19;20464;-64
2022/04/15 11:04:27;;;;;;;13.88;7.20;;;11.40;72.50;;;;;;9180110;19;20007;-64
2022/04/15 11:07:43;;;;;;;11.27;7.47;;;11.40;71.80;;;;;;9182249;19;20006;-64
2022/04/15 11:11:02;;;;;;;12.93;7.45;;;11.40;71.80;;;;;;9182932;19;20021;-66
2022/04/15 11:14:13;;;;;;;12.27;7.18;;;11.40;71.80;;;;;;9180147;19;20018;-66
2022/04/15 11:17:19;;;;;;;15.32;8.00;;;11.50;71.90;;;;;;9176913;19;20047;-65
2022/04/15 11:20:25;;;;;;;21.33;8.48;;;11.50;71.80;;;;;;9179132;19;20069;-65
2022/04/15 11:23:31;;;;;;;13.43;8.23;;;11.50;71.80;;;;;;9178332;19;20074;-65
2022/04/15 11:26:37;;;;;;;16.20;7.57;;;11.60;71.80;;;;;;9179330;19;20014;-66
2022/04/15 11:29:47;;;;;;;13.40;7.45;;;11.60;71.80;;;;;;9173568;19;20518;-66
2022/04/15 11:32:54;;;;;;;12.00;7.75;;;11.60;71.70;;;;;;9180146;19;20022;-67
2022/04/15 11:35:59;;;;;;;12.88;7.93;;;11.60;71.70;;;;;;9180837;19;20014;-65
2022/04/15 11:39:10;;;;;;;17.85;7.93;;;11.60;71.70;;;;;;9179669;19;20015;-66
2022/04/15 11:42:17;;;;;;;21.60;8.00;;;11.60;71.70;;;;;;9176975;19;20472;-65
2022/04/15 11:45:36;;;;;;;18.80;9.05;;;11.70;71.80;;;;;;9183168;19;20486;-66
2022/04/15 11:48:42;;;;;;;15.02;9.15;;;11.70;71.80;;;;;;9182479;19;20022;-67
2022/04/15 11:51:48;;;;;;;16.90;8.80;;;11.70;71.70;;;;;;9181316;19;20007;-68
2022/04/15 11:54:53;;;;;;;16.52;8.93;;;11.80;71.80;;;;;;9181979;19;20070;-67
2022/04/15 11:57:58;;;;;;;18.85;8.82;;;11.80;71.70;;;;;;9181931;19;20037;-66
2022/04/15 12:01:06;;;;;;;18.75;8.57;;;11.90;71.70;;;;;;9180038;19;20463;-66
2022/04/15 12:04:12;;;;;;;16.77;9.35;;;11.90;71.70;;;;;;9180597;19;20339;-65
2022/04/15 12:07:19;;;;;;;16.73;9.45;;;12.00;71.60;;;;;;9187582;19;20022;-65
2022/04/15 12:10:24;;;;;;;16.35;8.43;;;11.90;71.60;;;;;;9189078;19;20015;-65
2022/04/15 12:13:29;;;;;;;15.48;8.32;;;12.00;71.50;;;;;;9189289;19;20006;-65
2022/04/15 12:16:39;;;;;;;22.10;9.40;;;12.00;71.50;;;;;;9189271;19;20007;-66
2022/04/15 12:19:44;;;;;;;16.02;8.32;;;12.00;71.60;;;;;;9181565;19;20025;-64
2022/04/15 12:22:49;;;;;;;18.10;8.98;;;12.00;71.50;;;;;;9183995;19;20098;-65
2022/04/15 12:26:09;;;;;;;15.32;8.00;;;12.10;71.50;;;;;;9177423;19;20014;-69
2022/04/15 12:32:36;;;;;;;16.50;8.98;;;12.10;71.60;;;;;;9189110;19;20011;-65
2022/04/15 12:36:00;;;;;;;17.63;8.75;;;12.20;71.60;;;;;;9187637;19;20021;-66
2022/04/15 12:39:07;;;;;;;18.67;8.60;;;12.20;71.40;;;;;;9189289;19;20019;-64
2022/04/15 12:42:29;;;;;;;16.38;8.32;;;12.20;71.40;;;;;;9188376;19;20018;-67
2022/04/15 12:45:53;;;;;;;13.75;8.13;;;12.30;71.40;;;;;;9189559;19;20475;-76
2022/04/15 12:49:34;;;;;;;16.35;8.23;;;12.30;71.40;;;;;;9190014;19;20018;-75
2022/04/15 12:52:44;;;;;;;19.13;9.18;;;12.40;71.50;;;;;;9177931;19;20025;-70
2022/04/15 12:56:13;;;;;;;19.95;8.68;;;12.40;71.40;;;;;;9183775;19;20108;-68
2022/04/15 12:59:19;;;;;;;17.23;8.73;;;12.40;71.30;;;;;;9185728;19;20021;-69
2022/04/15 13:02:25;;;;;;;20.92;10.35;;;12.40;71.20;;;;;;9180068;19;20022;-69
2022/04/15 13:05:33;;;;;;;19.27;9.30;;;12.40;71.30;;;;;;9175802;19;20015;-70
2022/04/15 13:08:39;;;;;;;20.25;8.88;;;12.50;71.30;;;;;;9177783;19;20026;-69
2022/04/15 13:11:44;;;;;;;19.92;7.13;;;12.50;71.20;;;;;;9171399;19;20042;-69
2022/04/15 13:14:51;;;;;;;13.40;6.13;;;12.50;71.20;;;;;;9178819;19;20746;-69
2022/04/15 13:17:59;;;;;;;13.30;6.93;;;12.50;71.10;;;;;;9177713;19;20022;-69
2022/04/15 13:21:07;;;;;;;15.00;6.90;;;12.50;71.10;;;;;;9179371;19;20011;-69
2022/04/15 13:24:12;;;;;;;16.08;6.80;;;12.50;71.00;;;;;;9181639;19;20024;-69
2022/04/15 13:27:22;;;;;;;20.42;6.13;;;12.50;71.00;;;;;;9180791;19;20022;-70
2022/04/15 13:30:27;;;;;;;9.35;5.43;;;12.50;70.90;;;;;;9178154;19;20055;-69
2022/04/15 13:33:32;;;;;;;16.15;6.07;;;12.50;70.90;;;;;;9180519;19;20341;-69
2022/04/15 13:36:40;;;;;;;13.48;5.63;;;12.50;70.90;;;;;;9179055;19;20025;-71
2022/04/15 13:39:47;;;;;;;9.45;4.95;;;12.50;70.80;;;;;;9180574;19;20060;-69
2022/04/15 13:42:52;;;;;;;8.43;4.88;;;12.50;70.80;;;;;;9182004;19;20917;-69
2022/04/15 13:45:58;;;;;;;13.50;5.82;;;12.50;70.80;;;;;;9181900;19;20030;-70
2022/04/15 13:49:03;;;;;;;8.30;5.35;;;12.50;70.70;;;;;;9181875;19;20383;-68
2022/04/15 13:58:48;;;;;;;9.68;4.88;;;12.50;70.60;;;;;;9178542;19;20103;-69
2022/04/15 14:02:04;;;;;;;12.20;4.95;;;12.60;70.60;;;;;;9180452;19;20363;-70
2022/04/15 14:05:12;;;;;;;14.43;4.85;;;12.60;70.50;;;;;;9178106;19;20305;-70
2022/04/15 14:08:21;;;;;;;10.63;5.47;;;12.70;70.50;;;;;;9179155;19;20018;-70
2022/04/15 14:11:28;;;;;;;9.88;4.65;;;12.70;70.40;;;;;;9181322;19;20018;-70
2022/04/15 14:14:35;;;;;;;9.70;5.43;;;12.70;70.40;;;;;;9178664;19;20010;-70
2022/04/15 14:17:41;;;;;;;10.25;4.75;;;12.80;70.40;;;;;;9178675;19;20106;-70
2022/04/15 14:20:47;;;;;;;9.63;5.28;;;12.80;70.30;;;;;;9178406;19;20020;-68
2022/04/15 14:23:58;;;;;;;10.57;5.00;;;12.80;70.20;;;;;;9171075;19;20018;-68
2022/04/15 14:27:06;;;;;;;7.82;4.82;;;12.90;70.20;;;;;;9170162;19;20576;-69
2022/04/15 14:30:12;;;;;;;11.32;5.50;;;12.90;70.10;;;;;;9168473;19;20393;-69
2022/04/15 14:33:17;;;;;;;7.43;5.25;;;13.00;70.10;;;;;;9174511;19;20937;-69
2022/04/15 14:36:22;;;;;;;10.05;4.63;;;13.00;70.00;;;;;;9174026;19;20011;-68
2022/04/15 14:39:37;;;;;;;9.57;6.10;;;13.00;69.90;;;;;;9172019;19;20333;-71
2022/04/15 14:42:45;;;;;;;10.88;6.28;;;13.00;69.90;;;;;;9173403;19;20025;-70
2022/04/15 14:45:53;;;;;;;9.55;6.47;;;13.00;69.80;;;;;;9172565;19;20018;-69
2022/04/15 14:49:01;;;;;;;11.60;6.65;;;13.10;69.80;;;;;;9174125;19;20025;-70
2022/04/15 14:52:15;;;;;;;12.75;6.25;;;13.10;69.80;;;;;;9173209;19;20035;-69
2022/04/15 14:55:23;;;;;;;9.80;5.47;;;13.10;69.70;;;;;;9177566;19;20014;-69
2022/04/15 14:58:32;;;;;;;10.65;4.95;;;13.10;69.60;;;;;;9179259;19;20014;-71
2022/04/15 15:01:37;;;;;;;11.07;5.18;;;13.10;69.60;;;;;;9170744;19;20021;-69
2022/04/15 15:04:42;;;;;;;13.77;4.97;;;13.10;69.50;;;;;;9163035;19;20356;-69
2022/04/15 15:07:58;;;;;;;7.25;4.13;;;13.10;69.40;;;;;;9167882;19;20019;-69
2022/04/15 15:11:08;;;;;;;8.25;4.75;;;13.10;69.40;;;;;;9169050;19;20443;-69
2022/04/15 15:14:14;;;;;;;10.55;5.18;;;13.10;69.40;;;;;;9167121;19;20018;-70
2022/04/15 15:17:20;;;;;;;9.50;5.07;;;13.00;69.40;;;;;;9164213;19;20054;-69
2022/04/15 15:20:25;;;;;;;8.02;5.03;;;13.10;69.40;;;;;;9170110;19;20039;-68
2022/04/15 15:23:31;;;;;;;13.60;5.70;;;13.10;69.30;;;;;;9167511;19;20044;-69
2022/04/15 15:29:58;;;;;;;7.25;4.68;;;13.10;69.30;;;;;;9167122;19;20025;-70
2022/04/15 15:33:03;;;;;;;9.80;5.00;;;13.10;69.30;;;;;;9168584;19;20717;-69
2022/04/15 15:36:13;;;;;;;9.10;4.95;;;13.10;69.30;;;;;;9170524;19;20021;-70
2022/04/15 15:39:18;;;;;;;9.00;4.38;;;13.10;69.30;;;;;;9168235;19;20018;-68
2022/04/15 15:42:26;;;;;;;10.13;5.10;;;13.00;69.10;;;;;;9167400;19;20026;-70
2022/04/15 15:45:32;;;;;;;9.85;4.70;;;13.00;69.00;;;;;;9171581;19;20025;-70
2022/04/15 15:48:40;;;;;;;8.05;4.97;;;13.00;69.00;;;;;;9168391;19;20022;-69
2022/04/15 15:51:46;;;;;;;13.02;4.60;;;13.00;69.00;;;;;;9165760;19;20018;-70
2022/04/15 15:54:51;;;;;;;12.52;5.05;;;13.00;68.90;;;;;;9166473;19;20324;-68
2022/04/15 15:57:59;;;;;;;13.43;5.25;;;13.00;68.90;;;;;;9169168;19;20010;-70
2022/04/15 16:01:04;;;;;;;9.57;5.30;;;13.00;68.90;;;;;;9167395;19;20025;-70
2022/04/15 16:04:11;;;;;;;13.30;5.53;;;13.00;68.90;;;;;;9166941;19;20015;-70
2022/04/15 16:07:20;;;;;;;8.98;5.05;;;13.00;68.90;;;;;;9170055;19;20015;-69
2022/04/15 16:10:25;;;;;;;9.38;5.13;;;13.00;68.90;;;;;;9170332;19;20487;-69
2022/04/15 16:13:35;;;;;;;10.82;5.55;;;13.00;68.80;;;;;;9170196;19;20376;-69
2022/04/15 16:16:40;;;;;;;10.77;6.13;;;12.90;68.80;;;;;;9170199;19;20015;-70
2022/04/15 16:19:45;;;;;;;10.55;5.25;;;12.90;68.90;;;;;;9170722;19;20026;-71
2022/04/15 16:22:52;;;;;;;8.85;5.85;;;12.90;69.00;;;;;;9169329;19;20482;-70